PST,Max TemperatureF,Mean TemperatureF,Min TemperatureF,Max Dew PointF,MeanDew PointF,Min DewpointF,Max Humidity, Mean Humidity, Min Humidity, Max Sea Level PressureIn, Mean Sea Level PressureIn, Min Sea Level PressureIn, Max VisibilityMiles, Mean VisibilityMiles, Min VisibilityMiles, Max Wind SpeedMPH, Mean Wind SpeedMPH, Max Gust SpeedMPH,PrecipitationIn, CloudCover, Events, WindDirDegrees
2013-1-1,42,35,28,33,29,25,96,85,62,30.52,30.46,30.38,10,9,5,10,2,,0.00,1,,336
2013-1-2,46,36,27,30,24,19,100,69,37,30.37,30.29,30.20,10,9,6,9,2,17,0.00,0,,133
2013-1-3,46,36,27,34,24,18,92,64,34,30.22,30.16,30.12,10,10,6,10,3,16,0.11,3,Rain,141
2013-1-4,48,42,37,45,39,35,100,91,80,30.34,30.26,30.19,10,8,3,8,3,,0.04,6,Rain,126
2013-1-5,45,42,39,39,36,31,100,80,60,30.22,30.17,30.14,10,8,2,7,3,,0.08,8,Rain,136
2013-1-6,46,42,37,41,39,37,100,91,80,30.20,30.15,30.01,10,10,3,9,4,,0.04,8,Rain,123
2013-1-7,51,46,41,47,43,39,96,85,76,30.17,29.97,29.86,10,9,4,18,8,32,0.05,8,Rain,156
2013-1-8,55,48,42,48,43,39,100,85,69,30.18,29.97,29.75,10,6,1,17,6,36,0.45,8,Rain,146
2013-1-9,51,43,35,47,37,34,100,87,76,29.97,29.82,29.70,10,8,4,12,7,22,1.11,8,Rain,146
2013-1-10,39,36,32,36,34,32,100,92,79,30.14,30.08,29.97,10,7,0,6,3,,0.01,8,Fog-Rain,165
2013-1-11,36,32,28,32,28,22,100,91,61,30.35,30.25,30.14,10,6,1,6,2,,0.00,3,,182
2013-1-12,37,30,24,28,25,21,93,85,55,30.47,30.40,30.35,10,9,7,9,1,,0.00,1,,344
2013-1-13,35,28,21,26,23,19,92,81,64,30.52,30.49,30.47,10,9,7,6,2,,0.00,2,,141
2013-1-14,37,32,28,31,27,25,85,77,62,30.59,30.54,30.50,10,9,7,6,3,,0.00,8,,148
2013-1-15,43,36,28,34,31,28,100,84,62,30.72,30.68,30.60,10,10,7,7,2,,0.00,3,,306
2013-1-16,41,34,26,33,29,25,100,94,73,30.70,30.64,30.54,10,6,0,6,0,,0.00,5,Fog,303
2013-1-17,35,32,28,35,31,28,100,99,96,30.55,30.43,30.33,8,2,0,5,1,,0.00,7,Fog,314
2013-1-18,37,32,28,36,32,29,100,99,93,30.37,30.31,30.28,6,2,0,7,2,,0.00,8,Fog,63
2013-1-19,34,32,30,34,32,30,100,98,87,30.41,30.38,30.35,7,3,1,6,3,,0.00,8,,18
2013-1-20,37,34,30,35,32,30,100,98,92,30.42,30.35,30.28,4,2,0,5,2,,0.00,8,Fog,13
2013-1-21,34,32,30,34,32,30,100,99,93,30.30,30.21,30.16,7,2,0,6,3,,0.00,8,Fog,108
2013-1-22,39,34,28,34,31,28,100,95,79,30.17,30.07,29.92,6,3,0,6,0,,0.00,4,Fog,176
2013-1-23,43,40,36,41,36,26,93,83,51,30.16,29.96,29.86,10,8,3,9,4,,0.16,8,Rain,151
2013-1-24,46,40,34,41,38,33,100,89,63,30.23,30.15,30.06,10,9,2,8,4,,0.16,5,Rain,141
2013-1-25,53,47,41,45,42,39,100,94,66,30.08,30.02,29.94,10,6,2,7,3,,0.16,7,Rain,153
2013-1-26,48,44,39,40,38,37,100,83,66,30.06,29.96,29.91,10,9,4,15,5,22,0.06,8,Rain,167
2013-1-27,43,41,39,39,38,37,93,87,81,30.09,30.04,30.01,10,9,5,13,6,18,0.03,8,Rain,156
2013-1-28,43,41,39,42,40,37,100,94,85,30.12,30.07,30.02,10,8,5,8,3,,0.33,7,Rain,147
2013-1-29,48,45,42,46,44,41,100,95,86,30.36,30.28,30.13,10,8,2,10,3,20,0.22,8,Rain,144
2013-1-30,48,46,44,48,46,43,100,97,89,30.40,30.37,30.33,10,4,1,8,6,,0.12,8,Rain,150
2013-1-31,51,48,46,47,46,44,100,93,76,30.42,30.36,30.30,10,7,2,13,3,20,0.09,8,Rain,154